sensor_id;sensor_type;location;lat;lon;timestamp;P1;durP1;ratioP1;P2;durP2;ratioP2
5026;SDS011;2532;52.480;13.354;2024-01-10T00:01:58;97.47;;;46.17;;
5026;SDS011;2532;52.480;13.354;2024-01-10T00:04:25;90.10;;;46.53;;
5026;SDS011;2532;52.480;13.354;2024-01-10T00:06:52;85.07;;;43.23;;
5026;SDS011;2532;52.480;13.354;2024-01-10T00:09:20;100.80;;;48.07;;
5026;SDS011;2532;52.480;13.354;2024-01-10T00:11:48;110.37;;;50.20;;
5026;SDS011;2532;52.480;13.354;2024-01-10T00:14:15;105.60;;;48.97;;
5026;SDS011;2532;52.480;13.354;2024-01-10T00:16:42;115.10;;;48.97;;
5026;SDS011;2532;52.480;13.354;2024-01-10T00:19:09;94.53;;;48.50;;
5026;SDS011;2532;52.480;13.354;2024-01-10T00:21:36;85.50;;;43.30;;
5026;SDS011;2532;52.480;13.354;2024-01-10T00:24:05;95.40;;;47.13;;
5026;SDS011;2532;52.480;13.354;2024-01-10T00:26:32;86.23;;;44.97;;
5026;SDS011;2532;52.480;13.354;2024-01-10T00:29:01;86.17;;;44.37;;
5026;SDS011;2532;52.480;13.354;2024-01-10T00:31:27;97.30;;;44.90;;
5026;SDS011;2532;52.480;13.354;2024-01-10T00:33:54;108.80;;;50.90;;
5026;SDS011;2532;52.480;13.354;2024-01-10T00:36:21;79.23;;;43.53;;
5026;SDS011;2532;52.480;13.354;2024-01-10T00:38:48;93.27;;;45.30;;
5026;SDS011;2532;52.480;13.354;2024-01-10T00:41:17;98.90;;;47.87;;
5026;SDS011;2532;52.480;13.354;2024-01-10T00:43:44;96.50;;;46.30;;
5026;SDS011;2532;52.480;13.354;2024-01-10T00:46:12;92.17;;;45.80;;
5026;SDS011;2532;52.480;13.354;2024-01-10T00:48:39;98.37;;;48.50;;
5026;SDS011;2532;52.480;13.354;2024-01-10T00:51:06;95.40;;;45.57;;
5026;SDS011;2532;52.480;13.354;2024-01-10T00:53:33;87.70;;;45.03;;
5026;SDS011;2532;52.480;13.354;2024-01-10T00:56:00;93.03;;;46.33;;
5026;SDS011;2532;52.480;13.354;2024-01-10T00:58:27;90.90;;;44.87;;
5026;SDS011;2532;52.480;13.354;2024-01-10T01:00:54;91.80;;;45.77;;
5026;SDS011;2532;52.480;13.354;2024-01-10T01:03:22;100.63;;;46.63;;
5026;SDS011;2532;52.480;13.354;2024-01-10T01:05:49;87.83;;;44.27;;
5026;SDS011;2532;52.480;13.354;2024-01-10T01:08:16;95.17;;;44.93;;
5026;SDS011;2532;52.480;13.354;2024-01-10T01:10:43;95.17;;;44.73;;
5026;SDS011;2532;52.480;13.354;2024-01-10T01:13:10;94.43;;;46.03;;
5026;SDS011;2532;52.480;13.354;2024-01-10T01:15:37;99.00;;;45.37;;
5026;SDS011;2532;52.480;13.354;2024-01-10T01:18:05;95.13;;;46.40;;
5026;SDS011;2532;52.480;13.354;2024-01-10T01:20:36;92.53;;;45.10;;
5026;SDS011;2532;52.480;13.354;2024-01-10T01:23:03;92.67;;;45.70;;
5026;SDS011;2532;52.480;13.354;2024-01-10T01:25:30;88.63;;;45.27;;
5026;SDS011;2532;52.480;13.354;2024-01-10T01:27:57;87.57;;;43.50;;
5026;SDS011;2532;52.480;13.354;2024-01-10T01:30:24;101.73;;;47.37;;
5026;SDS011;2532;52.480;13.354;2024-01-10T01:32:51;102.23;;;45.13;;
5026;SDS011;2532;52.480;13.354;2024-01-10T01:35:18;101.30;;;48.37;;
5026;SDS011;2532;52.480;13.354;2024-01-10T01:37:49;95.00;;;47.33;;
5026;SDS011;2532;52.480;13.354;2024-01-10T01:40:17;93.80;;;47.13;;
5026;SDS011;2532;52.480;13.354;2024-01-10T01:42:44;97.07;;;45.73;;
5026;SDS011;2532;52.480;13.354;2024-01-10T01:45:12;90.30;;;46.03;;
5026;SDS011;2532;52.480;13.354;2024-01-10T01:47:39;96.63;;;46.87;;
5026;SDS011;2532;52.480;13.354;2024-01-10T01:50:08;93.63;;;46.87;;
5026;SDS011;2532;52.480;13.354;2024-01-10T01:52:36;101.63;;;47.30;;
5026;SDS011;2532;52.480;13.354;2024-01-10T01:55:06;88.43;;;44.83;;
5026;SDS011;2532;52.480;13.354;2024-01-10T01:57:35;90.10;;;46.23;;
5026;SDS011;2532;52.480;13.354;2024-01-10T02:00:03;94.00;;;46.80;;
5026;SDS011;2532;52.480;13.354;2024-01-10T02:02:31;92.73;;;45.90;;
5026;SDS011;2532;52.480;13.354;2024-01-10T02:05:00;98.93;;;46.90;;
5026;SDS011;2532;52.480;13.354;2024-01-10T02:07:28;93.23;;;44.20;;
5026;SDS011;2532;52.480;13.354;2024-01-10T02:09:55;94.17;;;46.37;;
5026;SDS011;2532;52.480;13.354;2024-01-10T02:12:24;105.40;;;48.40;;
5026;SDS011;2532;52.480;13.354;2024-01-10T02:14:51;93.47;;;44.90;;
5026;SDS011;2532;52.480;13.354;2024-01-10T02:17:18;103.90;;;46.97;;
5026;SDS011;2532;52.480;13.354;2024-01-10T02:19:45;96.13;;;48.90;;
5026;SDS011;2532;52.480;13.354;2024-01-10T02:22:12;97.87;;;46.23;;
5026;SDS011;2532;52.480;13.354;2024-01-10T02:24:39;88.87;;;44.53;;
5026;SDS011;2532;52.480;13.354;2024-01-10T02:27:07;91.33;;;45.37;;
5026;SDS011;2532;52.480;13.354;2024-01-10T02:29:34;89.60;;;45.10;;
5026;SDS011;2532;52.480;13.354;2024-01-10T02:32:01;105.03;;;47.33;;
5026;SDS011;2532;52.480;13.354;2024-01-10T02:34:29;96.37;;;47.83;;
5026;SDS011;2532;52.480;13.354;2024-01-10T02:36:56;102.43;;;45.20;;
5026;SDS011;2532;52.480;13.354;2024-01-10T02:39:23;86.63;;;45.30;;
5026;SDS011;2532;52.480;13.354;2024-01-10T02:41:50;96.90;;;44.57;;
5026;SDS011;2532;52.480;13.354;2024-01-10T02:44:21;101.00;;;46.40;;
5026;SDS011;2532;52.480;13.354;2024-01-10T02:46:50;90.90;;;46.57;;
5026;SDS011;2532;52.480;13.354;2024-01-10T02:49:17;95.17;;;46.10;;
5026;SDS011;2532;52.480;13.354;2024-01-10T02:51:44;90.73;;;45.40;;
5026;SDS011;2532;52.480;13.354;2024-01-10T02:54:11;96.57;;;46.20;;
5026;SDS011;2532;52.480;13.354;2024-01-10T02:56:38;89.47;;;44.27;;
5026;SDS011;2532;52.480;13.354;2024-01-10T02:59:05;91.50;;;45.20;;
5026;SDS011;2532;52.480;13.354;2024-01-10T03:01:33;94.60;;;44.70;;
5026;SDS011;2532;52.480;13.354;2024-01-10T03:04:01;82.93;;;41.93;;
5026;SDS011;2532;52.480;13.354;2024-01-10T03:06:28;87.90;;;44.73;;
5026;SDS011;2532;52.480;13.354;2024-01-10T03:08:55;83.90;;;42.93;;
5026;SDS011;2532;52.480;13.354;2024-01-10T03:11:22;90.97;;;44.90;;
5026;SDS011;2532;52.480;13.354;2024-01-10T03:13:49;87.90;;;44.53;;
5026;SDS011;2532;52.480;13.354;2024-01-10T03:16:17;85.00;;;43.80;;
5026;SDS011;2532;52.480;13.354;2024-01-10T03:18:46;103.47;;;46.57;;
5026;SDS011;2532;52.480;13.354;2024-01-10T03:21:13;87.10;;;44.53;;
5026;SDS011;2532;52.480;13.354;2024-01-10T03:23:40;83.40;;;44.50;;
5026;SDS011;2532;52.480;13.354;2024-01-10T03:26:09;92.93;;;45.30;;
5026;SDS011;2532;52.480;13.354;2024-01-10T03:28:36;86.07;;;45.63;;
5026;SDS011;2532;52.480;13.354;2024-01-10T03:31:03;86.60;;;44.97;;
5026;SDS011;2532;52.480;13.354;2024-01-10T03:33:30;87.40;;;44.00;;
5026;SDS011;2532;52.480;13.354;2024-01-10T03:35:58;93.93;;;46.00;;
5026;SDS011;2532;52.480;13.354;2024-01-10T03:38:25;97.67;;;45.00;;
5026;SDS011;2532;52.480;13.354;2024-01-10T03:40:52;88.43;;;43.30;;
5026;SDS011;2532;52.480;13.354;2024-01-10T03:43:19;93.53;;;44.77;;
5026;SDS011;2532;52.480;13.354;2024-01-10T03:45:46;87.47;;;42.70;;
5026;SDS011;2532;52.480;13.354;2024-01-10T03:48:13;93.87;;;45.07;;
5026;SDS011;2532;52.480;13.354;2024-01-10T03:50:40;88.40;;;43.53;;
5026;SDS011;2532;52.480;13.354;2024-01-10T03:53:08;89.00;;;43.50;;
5026;SDS011;2532;52.480;13.354;2024-01-10T03:55:35;101.27;;;45.30;;
5026;SDS011;2532;52.480;13.354;2024-01-10T03:58:02;92.60;;;44.77;;
5026;SDS011;2532;52.480;13.354;2024-01-10T04:00:29;93.80;;;46.13;;
5026;SDS011;2532;52.480;13.354;2024-01-10T04:02:56;85.43;;;43.00;;
5026;SDS011;2532;52.480;13.354;2024-01-10T04:05:23;88.53;;;43.10;;
5026;SDS011;2532;52.480;13.354;2024-01-10T04:07:50;90.33;;;45.27;;
5026;SDS011;2532;52.480;13.354;2024-01-10T04:10:19;89.33;;;44.67;;
5026;SDS011;2532;52.480;13.354;2024-01-10T04:12:46;90.47;;;44.97;;
5026;SDS011;2532;52.480;13.354;2024-01-10T04:15:13;87.73;;;44.10;;
5026;SDS011;2532;52.480;13.354;2024-01-10T04:17:40;87.93;;;44.37;;
5026;SDS011;2532;52.480;13.354;2024-01-10T04:20:07;97.00;;;44.83;;
5026;SDS011;2532;52.480;13.354;2024-01-10T04:22:35;86.03;;;44.23;;
5026;SDS011;2532;52.480;13.354;2024-01-10T04:25:04;94.80;;;44.87;;
5026;SDS011;2532;52.480;13.354;2024-01-10T04:27:34;90.30;;;45.27;;
5026;SDS011;2532;52.480;13.354;2024-01-10T04:30:01;85.67;;;45.20;;
5026;SDS011;2532;52.480;13.354;2024-01-10T04:32:27;90.37;;;45.20;;
5026;SDS011;2532;52.480;13.354;2024-01-10T04:34:54;91.23;;;45.03;;
5026;SDS011;2532;52.480;13.354;2024-01-10T04:37:21;91.73;;;45.30;;
5026;SDS011;2532;52.480;13.354;2024-01-10T04:39:48;92.90;;;45.47;;
5026;SDS011;2532;52.480;13.354;2024-01-10T04:42:15;97.10;;;44.77;;
5026;SDS011;2532;52.480;13.354;2024-01-10T04:44:43;90.40;;;44.77;;
5026;SDS011;2532;52.480;13.354;2024-01-10T04:47:10;89.30;;;44.03;;
5026;SDS011;2532;52.480;13.354;2024-01-10T04:49:37;93.63;;;46.70;;
5026;SDS011;2532;52.480;13.354;2024-01-10T04:52:04;97.13;;;46.00;;
5026;SDS011;2532;52.480;13.354;2024-01-10T04:54:31;94.67;;;45.87;;
5026;SDS011;2532;52.480;13.354;2024-01-10T04:56:59;83.30;;;43.90;;
5026;SDS011;2532;52.480;13.354;2024-01-10T04:59:26;93.97;;;47.97;;
5026;SDS011;2532;52.480;13.354;2024-01-10T05:01:54;101.80;;;46.73;;
5026;SDS011;2532;52.480;13.354;2024-01-10T05:04:21;90.80;;;45.40;;
5026;SDS011;2532;52.480;13.354;2024-01-10T05:06:48;87.30;;;43.53;;
5026;SDS011;2532;52.480;13.354;2024-01-10T05:09:15;96.60;;;47.50;;
5026;SDS011;2532;52.480;13.354;2024-01-10T05:11:42;97.87;;;46.20;;
5026;SDS011;2532;52.480;13.354;2024-01-10T05:14:12;90.83;;;42.87;;
5026;SDS011;2532;52.480;13.354;2024-01-10T05:16:39;91.40;;;44.63;;
5026;SDS011;2532;52.480;13.354;2024-01-10T05:19:07;91.67;;;45.70;;
5026;SDS011;2532;52.480;13.354;2024-01-10T05:21:34;93.43;;;46.50;;
5026;SDS011;2532;52.480;13.354;2024-01-10T05:24:01;100.77;;;45.80;;
5026;SDS011;2532;52.480;13.354;2024-01-10T05:26:28;92.97;;;45.43;;
5026;SDS011;2532;52.480;13.354;2024-01-10T05:28:55;96.30;;;45.80;;
5026;SDS011;2532;52.480;13.354;2024-01-10T05:31:22;91.73;;;46.60;;
5026;SDS011;2532;52.480;13.354;2024-01-10T05:33:49;93.70;;;46.20;;
5026;SDS011;2532;52.480;13.354;2024-01-10T05:36:17;91.37;;;46.70;;
5026;SDS011;2532;52.480;13.354;2024-01-10T05:38:47;99.47;;;46.47;;
5026;SDS011;2532;52.480;13.354;2024-01-10T05:41:14;89.20;;;44.87;;
5026;SDS011;2532;52.480;13.354;2024-01-10T05:43:41;91.40;;;45.10;;
5026;SDS011;2532;52.480;13.354;2024-01-10T05:46:09;100.57;;;46.57;;
5026;SDS011;2532;52.480;13.354;2024-01-10T05:48:36;90.03;;;44.80;;
5026;SDS011;2532;52.480;13.354;2024-01-10T05:51:03;100.97;;;45.67;;
5026;SDS011;2532;52.480;13.354;2024-01-10T05:53:31;86.90;;;43.97;;
5026;SDS011;2532;52.480;13.354;2024-01-10T05:55:58;90.80;;;45.80;;
5026;SDS011;2532;52.480;13.354;2024-01-10T05:58:25;90.93;;;43.60;;
5026;SDS011;2532;52.480;13.354;2024-01-10T06:00:52;89.50;;;44.93;;
5026;SDS011;2532;52.480;13.354;2024-01-10T06:03:20;84.83;;;44.03;;
5026;SDS011;2532;52.480;13.354;2024-01-10T06:05:47;88.13;;;44.97;;
5026;SDS011;2532;52.480;13.354;2024-01-10T06:08:14;91.33;;;43.40;;
5026;SDS011;2532;52.480;13.354;2024-01-10T06:10:42;95.57;;;46.53;;
5026;SDS011;2532;52.480;13.354;2024-01-10T06:13:09;103.13;;;46.60;;
5026;SDS011;2532;52.480;13.354;2024-01-10T06:15:36;102.20;;;46.10;;
5026;SDS011;2532;52.480;13.354;2024-01-10T06:18:03;91.03;;;47.20;;
5026;SDS011;2532;52.480;13.354;2024-01-10T06:20:30;96.60;;;46.77;;
5026;SDS011;2532;52.480;13.354;2024-01-10T06:22:58;90.23;;;44.43;;
5026;SDS011;2532;52.480;13.354;2024-01-10T06:25:25;94.73;;;48.70;;
5026;SDS011;2532;52.480;13.354;2024-01-10T06:27:54;93.47;;;45.67;;
5026;SDS011;2532;52.480;13.354;2024-01-10T06:30:21;95.07;;;46.93;;
5026;SDS011;2532;52.480;13.354;2024-01-10T06:32:48;101.53;;;48.10;;
5026;SDS011;2532;52.480;13.354;2024-01-10T06:35:15;105.03;;;48.63;;
5026;SDS011;2532;52.480;13.354;2024-01-10T06:37:42;102.77;;;47.90;;
5026;SDS011;2532;52.480;13.354;2024-01-10T06:40:10;93.63;;;47.43;;
5026;SDS011;2532;52.480;13.354;2024-01-10T06:42:37;102.27;;;47.90;;
5026;SDS011;2532;52.480;13.354;2024-01-10T06:45:07;96.90;;;47.80;;
5026;SDS011;2532;52.480;13.354;2024-01-10T06:47:34;95.53;;;46.67;;
5026;SDS011;2532;52.480;13.354;2024-01-10T06:50:02;101.33;;;46.80;;
5026;SDS011;2532;52.480;13.354;2024-01-10T06:52:30;100.17;;;47.60;;
5026;SDS011;2532;52.480;13.354;2024-01-10T06:54:57;111.90;;;47.03;;
5026;SDS011;2532;52.480;13.354;2024-01-10T06:57:24;104.47;;;48.30;;
5026;SDS011;2532;52.480;13.354;2024-01-10T06:59:52;98.70;;;49.87;;
5026;SDS011;2532;52.480;13.354;2024-01-10T07:02:21;104.23;;;48.77;;
5026;SDS011;2532;52.480;13.354;2024-01-10T07:04:49;101.80;;;47.20;;
5026;SDS011;2532;52.480;13.354;2024-01-10T07:07:16;92.33;;;46.40;;
5026;SDS011;2532;52.480;13.354;2024-01-10T07:09:43;104.13;;;46.97;;
5026;SDS011;2532;52.480;13.354;2024-01-10T07:12:10;93.30;;;44.73;;
5026;SDS011;2532;52.480;13.354;2024-01-10T07:14:37;93.97;;;45.87;;
5026;SDS011;2532;52.480;13.354;2024-01-10T07:17:04;96.30;;;47.10;;
5026;SDS011;2532;52.480;13.354;2024-01-10T07:19:32;103.40;;;48.77;;
5026;SDS011;2532;52.480;13.354;2024-01-10T07:21:59;89.80;;;44.77;;
5026;SDS011;2532;52.480;13.354;2024-01-10T07:24:27;100.50;;;49.60;;
5026;SDS011;2532;52.480;13.354;2024-01-10T07:26:54;98.50;;;48.40;;
5026;SDS011;2532;52.480;13.354;2024-01-10T07:29:22;92.13;;;47.57;;
5026;SDS011;2532;52.480;13.354;2024-01-10T07:31:49;99.33;;;47.70;;
5026;SDS011;2532;52.480;13.354;2024-01-10T07:34:17;109.73;;;48.40;;
5026;SDS011;2532;52.480;13.354;2024-01-10T07:36:47;99.50;;;49.57;;
5026;SDS011;2532;52.480;13.354;2024-01-10T07:39:14;101.40;;;47.10;;
5026;SDS011;2532;52.480;13.354;2024-01-10T07:41:43;102.30;;;49.27;;
5026;SDS011;2532;52.480;13.354;2024-01-10T07:44:10;102.60;;;50.10;;
5026;SDS011;2532;52.480;13.354;2024-01-10T07:46:37;110.10;;;50.90;;
5026;SDS011;2532;52.480;13.354;2024-01-10T07:49:04;111.63;;;47.63;;
5026;SDS011;2532;52.480;13.354;2024-01-10T07:51:31;102.20;;;48.67;;
5026;SDS011;2532;52.480;13.354;2024-01-10T07:54:00;109.03;;;51.20;;
5026;SDS011;2532;52.480;13.354;2024-01-10T07:56:27;111.53;;;48.90;;
5026;SDS011;2532;52.480;13.354;2024-01-10T07:58:55;99.00;;;48.57;;
5026;SDS011;2532;52.480;13.354;2024-01-10T08:01:22;97.70;;;47.73;;
5026;SDS011;2532;52.480;13.354;2024-01-10T08:03:48;102.47;;;50.37;;
5026;SDS011;2532;52.480;13.354;2024-01-10T08:06:15;101.07;;;48.97;;
5026;SDS011;2532;52.480;13.354;2024-01-10T08:08:42;103.00;;;48.53;;
5026;SDS011;2532;52.480;13.354;2024-01-10T08:11:11;97.40;;;47.63;;
5026;SDS011;2532;52.480;13.354;2024-01-10T08:13:37;100.20;;;48.10;;
5026;SDS011;2532;52.480;13.354;2024-01-10T08:16:05;102.40;;;49.60;;
5026;SDS011;2532;52.480;13.354;2024-01-10T08:18:33;104.03;;;47.20;;
5026;SDS011;2532;52.480;13.354;2024-01-10T08:21:01;92.27;;;46.33;;
5026;SDS011;2532;52.480;13.354;2024-01-10T08:23:29;101.03;;;48.20;;
5026;SDS011;2532;52.480;13.354;2024-01-10T08:25:56;98.60;;;45.77;;
5026;SDS011;2532;52.480;13.354;2024-01-10T08:28:25;100.33;;;47.13;;
5026;SDS011;2532;52.480;13.354;2024-01-10T08:30:52;94.60;;;46.63;;
5026;SDS011;2532;52.480;13.354;2024-01-10T08:33:19;95.97;;;47.73;;
5026;SDS011;2532;52.480;13.354;2024-01-10T08:35:46;116.33;;;48.70;;
5026;SDS011;2532;52.480;13.354;2024-01-10T08:38:13;89.70;;;45.67;;
5026;SDS011;2532;52.480;13.354;2024-01-10T08:40:40;101.17;;;48.07;;
5026;SDS011;2532;52.480;13.354;2024-01-10T08:43:07;97.50;;;47.90;;
5026;SDS011;2532;52.480;13.354;2024-01-10T08:45:35;99.13;;;46.83;;
5026;SDS011;2532;52.480;13.354;2024-01-10T08:48:02;99.97;;;47.17;;
5026;SDS011;2532;52.480;13.354;2024-01-10T08:50:31;85.50;;;44.77;;
5026;SDS011;2532;52.480;13.354;2024-01-10T08:52:59;89.50;;;45.23;;
5026;SDS011;2532;52.480;13.354;2024-01-10T08:55:28;97.67;;;44.73;;
5026;SDS011;2532;52.480;13.354;2024-01-10T08:57:56;90.37;;;43.13;;
5026;SDS011;2532;52.480;13.354;2024-01-10T09:00:23;91.83;;;46.00;;
5026;SDS011;2532;52.480;13.354;2024-01-10T09:02:52;95.30;;;44.50;;
5026;SDS011;2532;52.480;13.354;2024-01-10T09:05:19;96.00;;;45.30;;
5026;SDS011;2532;52.480;13.354;2024-01-10T09:07:46;94.17;;;45.13;;
5026;SDS011;2532;52.480;13.354;2024-01-10T09:10:14;85.57;;;44.23;;
5026;SDS011;2532;52.480;13.354;2024-01-10T09:12:41;97.90;;;44.00;;
5026;SDS011;2532;52.480;13.354;2024-01-10T09:15:11;94.83;;;46.73;;
5026;SDS011;2532;52.480;13.354;2024-01-10T09:17:39;97.40;;;45.40;;
5026;SDS011;2532;52.480;13.354;2024-01-10T09:20:08;87.03;;;43.97;;
5026;SDS011;2532;52.480;13.354;2024-01-10T09:22:36;95.27;;;44.10;;
5026;SDS011;2532;52.480;13.354;2024-01-10T09:25:03;84.63;;;41.70;;
5026;SDS011;2532;52.480;13.354;2024-01-10T09:27:31;96.00;;;45.70;;
5026;SDS011;2532;52.480;13.354;2024-01-10T09:29:58;88.30;;;43.77;;
5026;SDS011;2532;52.480;13.354;2024-01-10T09:32:26;89.57;;;43.67;;
5026;SDS011;2532;52.480;13.354;2024-01-10T09:34:53;88.63;;;43.10;;
5026;SDS011;2532;52.480;13.354;2024-01-10T09:37:22;80.93;;;40.33;;
5026;SDS011;2532;52.480;13.354;2024-01-10T09:39:49;89.13;;;41.63;;
5026;SDS011;2532;52.480;13.354;2024-01-10T09:42:17;83.60;;;40.87;;
5026;SDS011;2532;52.480;13.354;2024-01-10T09:44:52;96.13;;;42.30;;
5026;SDS011;2532;52.480;13.354;2024-01-10T09:47:24;81.27;;;40.30;;
5026;SDS011;2532;52.480;13.354;2024-01-10T09:50:04;81.70;;;39.10;;
5026;SDS011;2532;52.480;13.354;2024-01-10T09:52:39;72.40;;;36.63;;
5026;SDS011;2532;52.480;13.354;2024-01-10T09:55:23;86.77;;;41.80;;
5026;SDS011;2532;52.480;13.354;2024-01-10T09:57:54;84.03;;;40.50;;
5026;SDS011;2532;52.480;13.354;2024-01-10T10:00:21;85.30;;;37.97;;
5026;SDS011;2532;52.480;13.354;2024-01-10T10:02:52;73.93;;;36.40;;
5026;SDS011;2532;52.480;13.354;2024-01-10T10:05:22;81.67;;;38.67;;
5026;SDS011;2532;52.480;13.354;2024-01-10T10:07:51;76.33;;;37.37;;
5026;SDS011;2532;52.480;13.354;2024-01-10T10:10:22;70.07;;;36.63;;
5026;SDS011;2532;52.480;13.354;2024-01-10T10:13:02;70.87;;;36.77;;
5026;SDS011;2532;52.480;13.354;2024-01-10T10:15:39;72.60;;;36.53;;
5026;SDS011;2532;52.480;13.354;2024-01-10T10:18:15;80.77;;;38.83;;
5026;SDS011;2532;52.480;13.354;2024-01-10T10:20:45;69.90;;;34.50;;
5026;SDS011;2532;52.480;13.354;2024-01-10T10:23:23;77.43;;;34.40;;
5026;SDS011;2532;52.480;13.354;2024-01-10T10:25:50;80.23;;;36.03;;
5026;SDS011;2532;52.480;13.354;2024-01-10T10:28:17;71.60;;;35.60;;
5026;SDS011;2532;52.480;13.354;2024-01-10T10:30:48;67.07;;;33.50;;
5026;SDS011;2532;52.480;13.354;2024-01-10T10:33:21;75.90;;;36.70;;
5026;SDS011;2532;52.480;13.354;2024-01-10T10:35:55;63.40;;;31.60;;
5026;SDS011;2532;52.480;13.354;2024-01-10T10:38:26;58.10;;;32.37;;
5026;SDS011;2532;52.480;13.354;2024-01-10T10:41:05;64.57;;;33.90;;
5026;SDS011;2532;52.480;13.354;2024-01-10T10:43:38;63.03;;;34.03;;
5026;SDS011;2532;52.480;13.354;2024-01-10T10:46:13;65.77;;;32.93;;
5026;SDS011;2532;52.480;13.354;2024-01-10T10:48:43;58.73;;;31.93;;
5026;SDS011;2532;52.480;13.354;2024-01-10T10:51:11;64.33;;;33.80;;
5026;SDS011;2532;52.480;13.354;2024-01-10T10:53:45;56.70;;;29.70;;
5026;SDS011;2532;52.480;13.354;2024-01-10T10:56:16;59.90;;;32.20;;
5026;SDS011;2532;52.480;13.354;2024-01-10T10:58:44;67.60;;;33.70;;
5026;SDS011;2532;52.480;13.354;2024-01-10T11:01:14;59.63;;;31.10;;
5026;SDS011;2532;52.480;13.354;2024-01-10T11:03:43;64.57;;;30.27;;
5026;SDS011;2532;52.480;13.354;2024-01-10T11:06:12;56.43;;;31.53;;
5026;SDS011;2532;52.480;13.354;2024-01-10T11:08:45;69.27;;;33.53;;
5026;SDS011;2532;52.480;13.354;2024-01-10T11:11:20;64.20;;;32.40;;
5026;SDS011;2532;52.480;13.354;2024-01-10T11:16:55;60.27;;;30.57;;
5026;SDS011;2532;52.480;13.354;2024-01-10T11:22:53;63.33;;;31.93;;
5026;SDS011;2532;52.480;13.354;2024-01-10T11:26:05;75.40;;;31.83;;
5026;SDS011;2532;52.480;13.354;2024-01-10T11:28:40;60.50;;;31.07;;
5026;SDS011;2532;52.480;13.354;2024-01-10T11:31:15;61.60;;;30.10;;
5026;SDS011;2532;52.480;13.354;2024-01-10T11:34:13;60.73;;;30.50;;
5026;SDS011;2532;52.480;13.354;2024-01-10T11:39:40;58.07;;;29.17;;
5026;SDS011;2532;52.480;13.354;2024-01-10T11:42:22;60.57;;;29.77;;
5026;SDS011;2532;52.480;13.354;2024-01-10T11:45:16;59.87;;;31.27;;
5026;SDS011;2532;52.480;13.354;2024-01-10T11:48:25;57.43;;;28.30;;
5026;SDS011;2532;52.480;13.354;2024-01-10T11:50:57;52.33;;;29.00;;
5026;SDS011;2532;52.480;13.354;2024-01-10T11:53:40;62.97;;;29.87;;
5026;SDS011;2532;52.480;13.354;2024-01-10T11:56:15;58.63;;;31.30;;
5026;SDS011;2532;52.480;13.354;2024-01-10T11:59:05;57.97;;;29.57;;
5026;SDS011;2532;52.480;13.354;2024-01-10T12:01:49;62.80;;;29.90;;
5026;SDS011;2532;52.480;13.354;2024-01-10T12:04:17;60.60;;;30.30;;
5026;SDS011;2532;52.480;13.354;2024-01-10T12:06:47;55.03;;;29.40;;
5026;SDS011;2532;52.480;13.354;2024-01-10T12:09:19;55.37;;;27.40;;
5026;SDS011;2532;52.480;13.354;2024-01-10T12:11:46;64.40;;;27.40;;
5026;SDS011;2532;52.480;13.354;2024-01-10T12:14:16;54.40;;;27.73;;
5026;SDS011;2532;52.480;13.354;2024-01-10T12:16:45;51.03;;;26.73;;
5026;SDS011;2532;52.480;13.354;2024-01-10T12:19:23;48.73;;;25.03;;
5026;SDS011;2532;52.480;13.354;2024-01-10T12:21:53;50.70;;;25.37;;
5026;SDS011;2532;52.480;13.354;2024-01-10T12:24:24;41.50;;;20.50;;
5026;SDS011;2532;52.480;13.354;2024-01-10T12:26:55;47.90;;;22.83;;
5026;SDS011;2532;52.480;13.354;2024-01-10T12:29:26;43.63;;;21.17;;
5026;SDS011;2532;52.480;13.354;2024-01-10T12:32:05;40.40;;;22.10;;
5026;SDS011;2532;52.480;13.354;2024-01-10T12:34:37;38.47;;;20.23;;
5026;SDS011;2532;52.480;13.354;2024-01-10T12:37:06;39.20;;;21.73;;
5026;SDS011;2532;52.480;13.354;2024-01-10T12:39:33;47.50;;;23.87;;
5026;SDS011;2532;52.480;13.354;2024-01-10T12:42:12;46.50;;;22.37;;
5026;SDS011;2532;52.480;13.354;2024-01-10T12:44:47;48.70;;;21.37;;
5026;SDS011;2532;52.480;13.354;2024-01-10T12:47:27;39.80;;;18.63;;
5026;SDS011;2532;52.480;13.354;2024-01-10T12:50:05;53.60;;;24.40;;
5026;SDS011;2532;52.480;13.354;2024-01-10T12:52:38;47.80;;;23.40;;
5026;SDS011;2532;52.480;13.354;2024-01-10T12:55:13;51.23;;;23.57;;
5026;SDS011;2532;52.480;13.354;2024-01-10T12:57:44;38.50;;;19.10;;
5026;SDS011;2532;52.480;13.354;2024-01-10T13:00:16;45.00;;;23.70;;
5026;SDS011;2532;52.480;13.354;2024-01-10T13:02:54;45.43;;;22.17;;
5026;SDS011;2532;52.480;13.354;2024-01-10T13:05:24;48.27;;;24.93;;
5026;SDS011;2532;52.480;13.354;2024-01-10T13:07:51;43.50;;;22.63;;
5026;SDS011;2532;52.480;13.354;2024-01-10T13:10:24;40.60;;;20.50;;
5026;SDS011;2532;52.480;13.354;2024-01-10T13:12:52;45.67;;;22.63;;
5026;SDS011;2532;52.480;13.354;2024-01-10T13:15:22;50.43;;;23.73;;
5026;SDS011;2532;52.480;13.354;2024-01-10T13:17:50;48.90;;;22.83;;
5026;SDS011;2532;52.480;13.354;2024-01-10T13:20:23;52.37;;;22.20;;
5026;SDS011;2532;52.480;13.354;2024-01-10T13:22:53;43.60;;;19.47;;
5026;SDS011;2532;52.480;13.354;2024-01-10T13:25:32;42.03;;;19.97;;
5026;SDS011;2532;52.480;13.354;2024-01-10T13:28:08;47.50;;;22.27;;
5026;SDS011;2532;52.480;13.354;2024-01-10T13:30:55;51.10;;;24.20;;
5026;SDS011;2532;52.480;13.354;2024-01-10T13:33:31;46.30;;;21.50;;
5026;SDS011;2532;52.480;13.354;2024-01-10T13:35:59;48.23;;;20.30;;
5026;SDS011;2532;52.480;13.354;2024-01-10T13:38:27;52.47;;;21.60;;
5026;SDS011;2532;52.480;13.354;2024-01-10T13:40:57;55.30;;;25.30;;
5026;SDS011;2532;52.480;13.354;2024-01-10T13:43:30;52.50;;;20.80;;
5026;SDS011;2532;52.480;13.354;2024-01-10T13:46:03;49.93;;;21.50;;
5026;SDS011;2532;52.480;13.354;2024-01-10T13:48:35;42.53;;;20.17;;
5026;SDS011;2532;52.480;13.354;2024-01-10T13:51:03;46.23;;;20.73;;
5026;SDS011;2532;52.480;13.354;2024-01-10T13:53:31;56.63;;;25.33;;
5026;SDS011;2532;52.480;13.354;2024-01-10T13:55:59;46.77;;;24.37;;
5026;SDS011;2532;52.480;13.354;2024-01-10T13:58:29;48.07;;;23.30;;
5026;SDS011;2532;52.480;13.354;2024-01-10T14:01:02;49.60;;;24.70;;
5026;SDS011;2532;52.480;13.354;2024-01-10T14:03:30;51.80;;;24.97;;
5026;SDS011;2532;52.480;13.354;2024-01-10T14:06:04;53.17;;;26.37;;
5026;SDS011;2532;52.480;13.354;2024-01-10T14:08:36;57.17;;;26.47;;
5026;SDS011;2532;52.480;13.354;2024-01-10T14:11:06;48.30;;;24.30;;
5026;SDS011;2532;52.480;13.354;2024-01-10T14:13:44;52.23;;;25.27;;
5026;SDS011;2532;52.480;13.354;2024-01-10T14:16:26;51.43;;;26.87;;
5026;SDS011;2532;52.480;13.354;2024-01-10T14:18:56;64.57;;;25.30;;
5026;SDS011;2532;52.480;13.354;2024-01-10T14:21:34;50.40;;;24.53;;
5026;SDS011;2532;52.480;13.354;2024-01-10T14:24:02;48.60;;;26.27;;
5026;SDS011;2532;52.480;13.354;2024-01-10T14:26:30;50.50;;;23.83;;
5026;SDS011;2532;52.480;13.354;2024-01-10T14:29:07;49.70;;;23.20;;
5026;SDS011;2532;52.480;13.354;2024-01-10T14:31:44;50.63;;;26.77;;
5026;SDS011;2532;52.480;13.354;2024-01-10T14:34:12;60.63;;;24.70;;
5026;SDS011;2532;52.480;13.354;2024-01-10T14:36:55;53.47;;;27.67;;
5026;SDS011;2532;52.480;13.354;2024-01-10T14:42:57;51.47;;;20.63;;
5026;SDS011;2532;52.480;13.354;2024-01-10T14:45:42;59.50;;;25.40;;
5026;SDS011;2532;52.480;13.354;2024-01-10T14:48:17;46.73;;;25.73;;
5026;SDS011;2532;52.480;13.354;2024-01-10T14:50:49;53.23;;;25.83;;
5026;SDS011;2532;52.480;13.354;2024-01-10T14:53:17;56.10;;;25.67;;
5026;SDS011;2532;52.480;13.354;2024-01-10T14:55:58;60.27;;;24.90;;
5026;SDS011;2532;52.480;13.354;2024-01-10T14:58:43;55.30;;;27.30;;
5026;SDS011;2532;52.480;13.354;2024-01-10T15:02:09;48.47;;;26.40;;